createdAt,value
2022-12-15T00:00:23.845Z,1.89
2022-12-15T00:03:30.572Z,0.26
2022-12-15T00:06:19.550Z,-0.80
2022-12-15T00:09:11.157Z,-1.49
2022-12-15T00:12:00.385Z,-2.01
2022-12-15T00:14:46.719Z,-2.41
2022-12-15T00:17:33.254Z,-1.81
2022-12-15T00:20:19.995Z,1.06
2022-12-15T00:23:09.061Z,1.31
2022-12-15T00:25:55.574Z,-0.09
2022-12-15T00:28:41.627Z,-1.07
2022-12-15T00:31:28.028Z,-1.71
2022-12-15T00:34:14.442Z,-2.21
2022-12-15T00:37:01.135Z,-2.59
2022-12-15T00:39:28.959Z,-2.92
2022-12-15T00:41:56.688Z,-1.84
2022-12-15T00:44:25.049Z,0.75
2022-12-15T00:46:55.756Z,0.84
2022-12-15T00:49:44.360Z,-0.40
2022-12-15T00:52:32.169Z,-1.43
2022-12-15T00:55:19.016Z,-2.09
2022-12-15T00:58:05.601Z,-2.59
2022-12-15T01:00:52.594Z,-2.97
2022-12-15T01:03:43.186Z,-3.32
2022-12-15T01:06:34.250Z,-1.99
2022-12-15T01:09:21.915Z,0.74
2022-12-15T01:12:08.235Z,-0.09
2022-12-15T01:14:54.702Z,-1.33
2022-12-15T01:17:40.956Z,-2.15
2022-12-15T01:20:18.855Z,-2.72
2022-12-15T01:22:54.297Z,-3.13
2022-12-15T01:25:25.586Z,-3.48
2022-12-15T01:27:55.249Z,-2.95
2022-12-15T01:30:26.345Z,-0.28
2022-12-15T01:32:56.465Z,0.84
2022-12-15T01:35:26.088Z,-0.41
2022-12-15T01:37:53.821Z,-1.49
2022-12-15T01:40:40.641Z,-2.21
2022-12-15T01:43:21.073Z,-2.78
2022-12-15T01:46:09.949Z,-3.21
2022-12-15T01:49:00.791Z,-3.59
2022-12-15T01:51:43.026Z,-3.91
2022-12-15T01:54:20.149Z,-3.33
2022-12-15T01:56:55.922Z,-0.52
2022-12-15T01:59:32.890Z,0.23
2022-12-15T02:02:01.120Z,-1.10
2022-12-15T02:04:29.168Z,-2.08
2022-12-15T02:06:56.956Z,-2.75
2022-12-15T02:09:26.816Z,-3.26
2022-12-15T02:12:48.750Z,-3.65
2022-12-15T02:16:25.655Z,-4.01
2022-12-15T02:19:31.108Z,-1.12
2022-12-15T02:22:25.980Z,0.27
2022-12-15T02:25:22.339Z,-1.24
2022-12-15T02:28:04.852Z,-2.34
2022-12-15T02:31:10.605Z,-3.01
2022-12-15T02:33:46.903Z,-3.59
2022-12-15T02:36:25.931Z,-3.96
2022-12-15T02:38:53.733Z,-4.17
2022-12-15T02:41:36.828Z,-2.47
2022-12-15T02:44:16.260Z,-0.15
2022-12-15T02:47:13.756Z,-0.97
2022-12-15T02:50:06.833Z,-2.27
2022-12-15T02:52:52.532Z,-3.08
2022-12-15T02:55:58.950Z,-3.64
2022-12-15T02:59:11.318Z,-4.09
2022-12-15T03:01:54.397Z,-3.54
2022-12-15T03:04:23.009Z,-0.86
2022-12-15T03:07:00.896Z,-0.29
2022-12-15T03:09:31.898Z,-1.61
2022-12-15T03:11:59.971Z,-2.56
2022-12-15T03:14:28.233Z,-3.21
2022-12-15T03:16:56.583Z,-3.68
2022-12-15T03:19:24.558Z,-4.06
2022-12-15T03:21:52.972Z,-4.37
2022-12-15T03:24:20.784Z,-4.58
2022-12-15T03:26:51.921Z,-2.87
2022-12-15T03:29:20.020Z,-0.14
2022-12-15T03:31:49.884Z,2.13
2022-12-15T03:34:18.351Z,4.34
2022-12-15T03:36:46.548Z,5.15
2022-12-15T03:39:14.444Z,3.01
2022-12-15T03:41:42.580Z,1.17
2022-12-15T03:44:10.402Z,-0.06
2022-12-15T03:46:38.244Z,-0.94
2022-12-15T03:49:06.295Z,-1.60
2022-12-15T03:51:34.314Z,-2.16
2022-12-15T03:54:02.095Z,-2.64
2022-12-15T03:56:29.895Z,-3.09
2022-12-15T03:58:57.856Z,-3.51
2022-12-15T04:01:31.379Z,-3.89
2022-12-15T04:04:01.360Z,-4.24
2022-12-15T04:06:30.483Z,-4.57
2022-12-15T04:08:58.333Z,-3.74
2022-12-15T04:11:26.231Z,-0.50
2022-12-15T04:13:54.154Z,2.50
2022-12-15T04:16:22.022Z,4.27
2022-12-15T04:19:13.026Z,5.31
2022-12-15T04:21:40.858Z,3.20
2022-12-15T04:24:27.368Z,1.26
2022-12-15T04:27:13.914Z,-0.16
2022-12-15T04:30:00.387Z,-1.16
2022-12-15T04:32:49.942Z,-1.92
2022-12-15T04:35:36.474Z,-2.57
2022-12-15T04:38:22.898Z,-3.13
2022-12-15T04:41:09.539Z,-3.64
2022-12-15T04:43:55.846Z,-4.08
2022-12-15T04:46:42.532Z,-4.48
2022-12-15T04:49:28.566Z,-3.80
2022-12-15T04:52:16.543Z,-0.02
2022-12-15T04:55:03.309Z,3.28
2022-12-15T04:57:49.528Z,5.29
2022-12-15T05:00:36.171Z,3.41
2022-12-15T05:03:27.362Z,1.08
2022-12-15T05:06:13.968Z,-0.41
2022-12-15T05:09:00.477Z,-1.41
2022-12-15T05:11:47.201Z,-2.16
2022-12-15T05:14:33.590Z,-2.78
2022-12-15T05:17:19.646Z,-3.34
2022-12-15T05:20:05.927Z,-3.83
2022-12-15T05:22:52.765Z,-4.27
2022-12-15T05:25:39.043Z,-4.54
2022-12-15T05:28:25.807Z,-1.61
2022-12-15T05:31:12.040Z,1.92
2022-12-15T05:33:39.942Z,4.22
2022-12-15T05:36:08.289Z,5.16
2022-12-15T05:38:36.067Z,3.16
2022-12-15T05:41:03.955Z,1.12
2022-12-15T05:43:31.955Z,-0.24
2022-12-15T05:46:04.598Z,-1.19
2022-12-15T05:48:32.468Z,-1.93
2022-12-15T05:51:08.317Z,-2.54
2022-12-15T05:53:41.265Z,-3.10
2022-12-15T05:56:14.410Z,-3.61
2022-12-15T05:58:45.471Z,-4.03
2022-12-15T06:01:17.373Z,-4.42
2022-12-15T06:03:45.890Z,-4.27
2022-12-15T06:06:14.062Z,-1.60
2022-12-15T06:08:43.409Z,0.96
2022-12-15T06:11:17.159Z,2.74
2022-12-15T06:13:45.306Z,4.34
2022-12-15T06:16:19.779Z,5.19
2022-12-15T06:18:51.212Z,3.09
2022-12-15T06:21:23.710Z,1.13
2022-12-15T06:23:52.503Z,-0.19
2022-12-15T06:26:25.720Z,-1.13
2022-12-15T06:28:57.056Z,-1.86
2022-12-15T06:31:26.818Z,-2.46
2022-12-15T06:34:01.301Z,-2.99
2022-12-15T06:36:31.043Z,-3.48
2022-12-15T06:39:01.036Z,-3.90
2022-12-15T06:41:32.303Z,-4.28
2022-12-15T06:44:01.073Z,-4.60
2022-12-15T06:46:31.573Z,-3.52
2022-12-15T06:48:59.764Z,-0.79
2022-12-15T06:51:28.111Z,1.83
2022-12-15T06:53:56.455Z,3.63
2022-12-15T06:56:34.819Z,5.00
2022-12-15T06:59:05.183Z,4.53
2022-12-15T07:01:33.775Z,2.34
2022-12-15T07:04:03.215Z,0.76
2022-12-15T07:06:36.895Z,-0.34
2022-12-15T07:09:13.689Z,-1.17
2022-12-15T07:11:41.683Z,-1.83
2022-12-15T07:14:10.263Z,-2.37
2022-12-15T07:16:38.225Z,-2.82
2022-12-15T07:19:06.207Z,-3.24
2022-12-15T07:21:34.187Z,-3.61
2022-12-15T07:24:02.754Z,-3.95
2022-12-15T07:26:31.025Z,-4.25
2022-12-15T07:28:58.822Z,-4.52
2022-12-15T07:31:27.210Z,-4.25
2022-12-15T07:33:55.213Z,-1.64
2022-12-15T07:36:23.141Z,0.77
2022-12-15T07:38:51.888Z,2.39
2022-12-15T07:41:20.486Z,3.59
2022-12-15T07:43:48.778Z,4.67
2022-12-15T07:46:17.829Z,5.09
2022-12-15T07:48:50.186Z,3.33
2022-12-15T07:51:20.864Z,1.62
2022-12-15T07:53:50.842Z,0.47
2022-12-15T07:56:20.089Z,-0.35
2022-12-15T07:58:48.489Z,-0.99
2022-12-15T08:01:16.691Z,-1.51
2022-12-15T08:03:45.875Z,-1.95
2022-12-15T08:06:15.277Z,-2.34
2022-12-15T08:08:44.938Z,-2.69
2022-12-15T08:11:21.750Z,-3.04
2022-12-15T08:14:02.710Z,-3.35
2022-12-15T08:16:32.078Z,-3.64
2022-12-15T08:19:00.072Z,-3.88
2022-12-15T08:21:27.895Z,-4.08
2022-12-15T08:23:55.748Z,-3.66
2022-12-15T08:26:28.384Z,-1.14
2022-12-15T08:29:32.132Z,0.21
2022-12-15T08:31:51.979Z,-1.02
2022-12-15T08:34:20.683Z,-1.90
2022-12-15T08:36:48.512Z,-2.48
2022-12-15T08:39:16.575Z,-2.86
2022-12-15T08:41:44.769Z,-3.15
2022-12-15T08:44:12.697Z,-2.93
2022-12-15T08:46:40.419Z,-0.67
2022-12-15T08:49:08.784Z,0.65
2022-12-15T08:51:36.658Z,-0.29
2022-12-15T08:54:04.614Z,-1.19
2022-12-15T08:56:32.852Z,-1.78
2022-12-15T08:59:02.655Z,-2.19
2022-12-15T09:01:32.649Z,-2.50
2022-12-15T09:04:01.501Z,-2.48
2022-12-15T09:06:32.607Z,-0.20
2022-12-15T09:09:07.342Z,1.64
2022-12-15T09:11:35.277Z,0.69
2022-12-15T09:14:03.635Z,-0.30
2022-12-15T09:16:31.677Z,-0.94
2022-12-15T09:19:00.321Z,-1.37
2022-12-15T09:21:30.406Z,-1.69
2022-12-15T09:24:01.902Z,-1.94
2022-12-15T09:26:32.791Z,-1.35
2022-12-15T09:29:02.133Z,1.28
2022-12-15T09:31:34.067Z,2.20
2022-12-15T09:34:02.388Z,1.06
2022-12-15T09:36:32.771Z,0.15
2022-12-15T09:39:02.731Z,-0.45
2022-12-15T09:41:33.373Z,-0.86
2022-12-15T09:44:13.972Z,-0.56
2022-12-15T09:47:29.889Z,2.12
2022-12-15T09:50:04.907Z,2.80
2022-12-15T09:52:48.721Z,1.59
2022-12-15T09:55:23.845Z,0.69
2022-12-15T09:58:35.539Z,0.16
2022-12-15T10:01:30.994Z,1.13
2022-12-15T10:04:38.167Z,3.54
2022-12-15T10:07:32.205Z,2.48
2022-12-15T10:10:01.589Z,1.38
2022-12-15T10:12:33.243Z,0.77
2022-12-15T10:15:21.063Z,0.33
2022-12-15T10:18:21.698Z,0.82
2022-12-15T10:20:53.267Z,3.68
2022-12-15T10:23:21.190Z,3.98
2022-12-15T10:26:01.528Z,2.79
2022-12-15T10:29:02.159Z,1.83
2022-12-15T10:31:54.755Z,1.15
2022-12-15T10:34:31.392Z,0.71
2022-12-15T10:36:59.984Z,1.90
2022-12-15T10:39:46.010Z,4.14
2022-12-15T10:42:25.287Z,3.73
2022-12-15T10:44:58.572Z,2.61
2022-12-15T10:47:32.168Z,1.85
2022-12-15T10:53:55.310Z,2.12
2022-12-15T10:56:33.165Z,4.53
2022-12-15T10:59:35.396Z,3.73
2022-12-15T11:02:24.435Z,2.66
2022-12-15T11:05:16.828Z,1.95
2022-12-15T11:07:55.388Z,1.47
2022-12-15T11:10:51.913Z,2.46
2022-12-15T11:13:22.970Z,5.13
2022-12-15T11:15:53.363Z,4.87
2022-12-15T11:18:32.041Z,3.67
2022-12-15T11:21:11.365Z,2.81
2022-12-15T11:24:10.091Z,2.23
2022-12-15T11:27:24.922Z,1.75
2022-12-15T11:30:19.176Z,1.37
2022-12-15T11:32:57.080Z,1.05
2022-12-15T11:36:18.923Z,1.34
2022-12-15T11:39:43.032Z,4.05
2022-12-15T11:42:46.160Z,3.10
2022-12-15T11:45:48.833Z,2.11
2022-12-15T11:48:26.685Z,1.50
2022-12-15T11:51:13.433Z,1.12
2022-12-15T11:53:49.421Z,0.80
2022-12-15T11:56:43.064Z,1.79
2022-12-15T11:59:38.578Z,4.39
2022-12-15T12:02:39.846Z,3.68
2022-12-15T12:05:32.302Z,2.49
2022-12-15T12:08:15.159Z,1.78
2022-12-15T12:11:07.733Z,1.33
2022-12-15T12:14:08.047Z,0.95
2022-12-15T12:16:57.522Z,1.32
2022-12-15T12:19:33.635Z,4.04
2022-12-15T12:22:14.124Z,4.34
2022-12-15T12:24:48.915Z,3.10
2022-12-15T12:27:53.156Z,2.24
2022-12-15T12:30:26.137Z,1.59
2022-12-15T12:33:04.316Z,1.22
2022-12-15T12:35:53.214Z,0.90
2022-12-15T12:38:36.637Z,0.62
2022-12-15T12:41:12.232Z,0.95
2022-12-15T12:43:51.602Z,3.63
2022-12-15T12:46:33.467Z,4.51
2022-12-15T12:49:44.004Z,3.24
2022-12-15T12:52:22.769Z,2.17
2022-12-15T12:55:35.529Z,1.61
2022-12-15T12:58:03.574Z,1.10
2022-12-15T13:00:32.606Z,0.81
2022-12-15T13:03:30.436Z,0.56
2022-12-15T13:05:58.606Z,0.96
2022-12-15T13:08:50.998Z,3.10
2022-12-15T13:11:47.258Z,3.37
2022-12-15T13:14:26.409Z,2.23
2022-12-15T13:17:24.905Z,1.53
2022-12-15T13:20:01.409Z,1.00
2022-12-15T13:22:41.441Z,0.63
2022-12-15T13:25:40.633Z,0.34
2022-12-15T13:28:30.491Z,0.95
2022-12-15T13:31:20.196Z,3.38
2022-12-15T13:33:51.497Z,3.44
2022-12-15T13:36:40.537Z,2.39
2022-12-15T13:39:17.410Z,1.58
2022-12-15T13:44:51.957Z,0.64
2022-12-15T13:47:26.350Z,0.35
2022-12-15T13:50:18.378Z,0.38
2022-12-15T13:53:17.766Z,2.61
2022-12-15T13:55:51.672Z,3.26
2022-12-15T13:58:20.605Z,2.19
2022-12-15T14:00:57.302Z,1.44
2022-12-15T14:03:25.869Z,0.91
2022-12-15T14:05:59.488Z,0.55
2022-12-15T14:08:29.860Z,0.24
2022-12-15T14:11:06.930Z,0.33
2022-12-15T14:13:46.922Z,2.48
2022-12-15T14:16:22.198Z,3.70
2022-12-15T14:19:19.374Z,2.74
2022-12-15T14:21:58.945Z,1.68
2022-12-15T14:24:41.134Z,1.04
2022-12-15T14:27:09.270Z,0.60
2022-12-15T14:29:37.082Z,0.28
2022-12-15T14:32:05.598Z,0.50
2022-12-15T14:34:37.179Z,2.51
2022-12-15T14:37:10.843Z,3.70
2022-12-15T14:39:46.235Z,2.71
2022-12-15T14:42:21.732Z,1.75
2022-12-15T14:44:51.323Z,1.09
2022-12-15T14:47:34.932Z,0.64
2022-12-15T14:50:04.600Z,0.28
2022-12-15T14:52:44.043Z,0.58
2022-12-15T14:55:21.117Z,2.79
2022-12-15T14:57:52.532Z,3.87
2022-12-15T15:00:25.747Z,2.81
2022-12-15T15:03:04.067Z,1.33
2022-12-15T15:03:19.782Z,1.86
2022-12-15T15:05:54.204Z,1.14
2022-12-15T15:08:35.701Z,0.68
2022-12-15T15:11:30.511Z,0.29
2022-12-15T15:14:10.796Z,1.00
2022-12-15T15:16:38.634Z,3.29
2022-12-15T15:19:06.959Z,3.29
2022-12-15T15:21:39.094Z,2.19
2022-12-15T15:24:10.795Z,1.35
2022-12-15T15:26:40.100Z,0.77
2022-12-15T15:29:35.991Z,0.35
2022-12-15T15:32:18.896Z,-0.05
2022-12-15T15:34:49.586Z,1.12
2022-12-15T15:37:23.462Z,3.28
2022-12-15T15:39:55.238Z,3.29
2022-12-15T15:42:26.526Z,2.12
2022-12-15T15:44:58.556Z,1.25
2022-12-15T15:47:27.191Z,0.67
2022-12-15T15:49:58.536Z,0.23
2022-12-15T15:52:28.673Z,-0.11
2022-12-15T15:54:56.647Z,0.24
2022-12-15T15:57:24.597Z,2.36
2022-12-15T15:59:53.159Z,3.55
2022-12-15T16:02:21.146Z,2.53
2022-12-15T16:04:49.191Z,1.54
2022-12-15T16:07:24.751Z,0.87
2022-12-15T16:09:53.805Z,0.37
2022-12-15T16:12:45.269Z,0.33
2022-12-15T16:15:20.124Z,2.54
2022-12-15T16:17:48.132Z,3.75
2022-12-15T16:20:18.434Z,2.73
2022-12-15T16:22:51.281Z,1.73
2022-12-15T16:25:50.348Z,1.02
2022-12-15T16:28:24.950Z,0.44
2022-12-15T16:30:53.035Z,0.08
2022-12-15T16:33:21.420Z,0.97
2022-12-15T16:35:50.542Z,3.15
2022-12-15T16:38:32.164Z,3.38
2022-12-15T16:41:08.255Z,2.12
2022-12-15T16:43:39.179Z,1.24
2022-12-15T16:46:14.694Z,0.65
2022-12-15T16:48:43.369Z,0.21
2022-12-15T16:51:35.221Z,-0.14
2022-12-15T16:54:03.234Z,0.24
2022-12-15T16:56:31.161Z,2.37
2022-12-15T16:59:30.999Z,3.08
2022-12-15T17:01:47.734Z,1.87
2022-12-15T17:04:16.726Z,0.99
2022-12-15T17:06:44.927Z,0.38
2022-12-15T17:09:22.436Z,-0.08
2022-12-15T17:11:51.955Z,-0.47
2022-12-15T17:14:19.741Z,-0.18
2022-12-15T17:16:47.678Z,1.90
2022-12-15T17:19:20.888Z,3.09
2022-12-15T17:21:53.235Z,2.07
2022-12-15T17:24:24.480Z,1.03
2022-12-15T17:26:55.976Z,0.33
2022-12-15T17:29:26.981Z,-0.20
2022-12-15T17:31:54.868Z,-0.59
2022-12-15T17:34:31.003Z,-0.50
2022-12-15T17:37:02.252Z,1.57
2022-12-15T17:39:33.915Z,2.91
2022-12-15T17:42:02.929Z,1.91
2022-12-15T17:44:37.509Z,0.87
2022-12-15T17:47:08.714Z,0.11
2022-12-15T17:49:38.360Z,-0.41
2022-12-15T17:52:30.296Z,-0.83
2022-12-15T17:54:58.607Z,-0.26
2022-12-15T17:57:26.779Z,1.91
2022-12-15T17:59:54.688Z,2.50
2022-12-15T18:02:22.757Z,1.35
2022-12-15T18:04:50.896Z,0.40
2022-12-15T18:07:22.209Z,-0.29
2022-12-15T18:09:51.443Z,-0.81
2022-12-15T18:12:25.554Z,-1.22
2022-12-15T18:14:54.847Z,-1.06
2022-12-15T18:17:23.814Z,1.02
2022-12-15T18:19:51.630Z,2.00
2022-12-15T18:22:24.152Z,0.91
2022-12-15T18:24:53.812Z,-0.09
2022-12-15T18:27:29.386Z,-0.78
2022-12-15T18:29:57.206Z,-1.31
2022-12-15T18:32:27.076Z,-1.71
2022-12-15T18:34:55.327Z,-1.72
2022-12-15T18:37:28.210Z,0.20
2022-12-15T18:39:59.522Z,1.67
2022-12-15T18:42:32.026Z,0.66
2022-12-15T18:45:00.627Z,-0.36
2022-12-15T18:47:28.502Z,-1.09
2022-12-15T18:49:56.351Z,-1.61
2022-12-15T18:52:27.592Z,-1.69
2022-12-15T18:54:57.878Z,0.22
2022-12-15T18:57:35.888Z,1.66
2022-12-15T19:00:24.501Z,0.65
2022-12-15T19:02:54.399Z,-0.50
2022-12-15T19:05:43.928Z,-1.20
2022-12-15T19:08:20.238Z,-1.77
2022-12-15T19:10:59.983Z,-2.19
2022-12-15T19:13:36.289Z,-1.53
2022-12-15T19:16:07.120Z,0.73
2022-12-15T19:18:53.365Z,0.69
2022-12-15T19:21:47.594Z,-0.56
2022-12-15T19:24:59.942Z,-1.49
2022-12-15T19:27:27.816Z,-2.17
2022-12-15T19:29:55.863Z,-2.57
2022-12-15T19:32:24.142Z,-2.91
2022-12-15T19:34:52.211Z,-2.48
2022-12-15T19:37:26.757Z,0.01
2022-12-15T19:39:56.463Z,1.20
2022-12-15T19:42:31.176Z,-0.02
2022-12-15T19:45:01.522Z,-1.14
2022-12-15T19:47:29.948Z,-1.86
2022-12-15T19:49:57.751Z,-2.37
2022-12-15T19:52:26.576Z,-2.78
2022-12-15T19:54:54.558Z,-2.49
2022-12-15T19:57:22.461Z,-0.32
2022-12-15T19:59:50.286Z,0.84
2022-12-15T20:02:20.454Z,-0.30
2022-12-15T20:04:48.785Z,-1.42
2022-12-15T20:07:29.757Z,-2.16
2022-12-15T20:09:58.218Z,-2.72
2022-12-15T20:12:26.108Z,-3.12
2022-12-15T20:14:53.871Z,-2.98
2022-12-15T20:17:21.697Z,-0.87
2022-12-15T20:19:49.451Z,0.54
2022-12-15T20:22:19.222Z,-0.44
2022-12-15T20:24:47.424Z,-1.54
2022-12-15T20:27:19.202Z,-2.28
2022-12-15T20:29:47.116Z,-2.84
2022-12-15T20:32:19.571Z,-3.25
2022-12-15T20:34:47.902Z,-3.01
2022-12-15T20:37:26.977Z,-0.61
2022-12-15T20:39:57.616Z,1.01
2022-12-15T20:42:25.705Z,-0.22
2022-12-15T20:44:54.070Z,-1.39
2022-12-15T20:47:25.633Z,-2.19
2022-12-15T20:49:55.037Z,-2.75
2022-12-15T20:52:26.384Z,-3.19
2022-12-15T20:54:54.916Z,-3.03
2022-12-15T20:57:22.727Z,-0.97
2022-12-15T20:59:50.635Z,0.53
2022-12-15T21:02:22.514Z,-0.45
2022-12-15T21:04:51.353Z,-1.59
2022-12-15T21:07:19.906Z,-2.35
2022-12-15T21:09:47.820Z,-2.90
2022-12-15T21:12:22.800Z,-3.28
2022-12-15T21:14:51.103Z,-1.92
2022-12-15T21:17:22.269Z,0.25
2022-12-15T21:19:50.213Z,0.14
2022-12-15T21:22:24.177Z,-1.10
2022-12-15T21:24:54.740Z,-2.06
2022-12-15T21:27:22.966Z,-2.71
2022-12-15T21:29:52.844Z,-3.20
2022-12-15T21:32:21.113Z,-3.03
2022-12-15T21:34:49.912Z,-0.93
2022-12-15T21:37:31.638Z,0.51
2022-12-15T21:39:59.632Z,-0.55
2022-12-15T21:42:27.452Z,-1.68
2022-12-15T21:44:55.276Z,-2.45
2022-12-15T21:47:47.825Z,-3.02
2022-12-15T21:50:17.494Z,-3.52
2022-12-15T21:52:46.178Z,-3.26
2022-12-15T21:55:27.080Z,-1.02
2022-12-15T21:57:55.685Z,0.24
2022-12-15T22:00:25.237Z,-0.91
2022-12-15T22:02:53.868Z,-2.00
2022-12-15T22:05:30.263Z,-2.76
2022-12-15T22:08:00.660Z,-3.35
2022-12-15T22:10:28.540Z,-3.81
2022-12-15T22:12:59.830Z,-3.90
2022-12-15T22:15:28.677Z,-1.99
2022-12-15T22:17:56.545Z,-0.33
2022-12-15T22:20:25.191Z,-1.17
2022-12-15T22:22:52.977Z,-2.24
2022-12-15T22:25:25.873Z,-3.06
2022-12-15T22:27:54.982Z,-3.32
2022-12-15T22:30:26.961Z,-1.37
2022-12-15T22:32:54.829Z,-1.28
2022-12-15T22:35:26.004Z,-2.42
2022-12-15T22:37:54.017Z,-3.26
2022-12-15T22:40:23.881Z,-3.84
2022-12-15T22:42:55.701Z,-4.25
2022-12-15T22:45:24.206Z,-3.23
2022-12-15T22:47:53.182Z,-0.95
2022-12-15T22:50:25.950Z,-0.55
2022-12-15T22:52:54.946Z,-1.79
2022-12-15T22:55:24.306Z,-2.77
2022-12-15T22:57:59.985Z,-3.46
2022-12-15T23:00:27.803Z,-3.98
2022-12-15T23:05:26.054Z,-4.20
2022-12-15T23:07:54.197Z,-1.91
2022-12-15T23:10:41.203Z,-0.63
2022-12-15T23:13:08.943Z,-1.84
2022-12-15T23:15:55.285Z,-2.89
2022-12-15T23:18:23.135Z,-3.68
2022-12-15T23:20:51.714Z,-4.18
2022-12-15T23:23:19.988Z,-4.57
2022-12-15T23:25:47.728Z,-3.81
2022-12-15T23:28:15.543Z,-1.52
2022-12-15T23:30:49.713Z,0.55
2022-12-15T23:33:18.493Z,2.30
2022-12-15T23:35:47.034Z,3.83
2022-12-15T23:38:14.934Z,4.73
2022-12-15T23:40:52.539Z,5.09
2022-12-15T23:43:22.473Z,3.22
2022-12-15T23:46:03.056Z,1.40
2022-12-15T23:48:37.995Z,0.08
2022-12-15T23:51:17.718Z,-0.85
2022-12-15T23:53:47.693Z,-1.60
2022-12-15T23:56:19.148Z,-2.19
2022-12-15T23:58:49.486Z,-2.71
